sensor_id;sensor_type;location;lat;lon;timestamp;P1;durP1;ratioP1;P2;durP2;ratioP2
8044;SDS011;4065;48.754;9.982;2023-02-20T00:00:31;9.85;;;6.35;;
8044;SDS011;4065;48.754;9.982;2023-02-20T00:03:53;14.63;;;8.15;;
8044;SDS011;4065;48.754;9.982;2023-02-20T00:07:15;13.25;;;7.97;;
8044;SDS011;4065;48.754;9.982;2023-02-20T00:10:37;10.98;;;7.78;;
8044;SDS011;4065;48.754;9.982;2023-02-20T00:14:02;13.25;;;7.88;;
8044;SDS011;4065;48.754;9.982;2023-02-20T00:17:24;9.98;;;7.78;;
8044;SDS011;4065;48.754;9.982;2023-02-20T00:20:47;14.40;;;7.53;;
8044;SDS011;4065;48.754;9.982;2023-02-20T00:24:09;13.43;;;9.15;;
8044;SDS011;4065;48.754;9.982;2023-02-20T00:27:31;12.52;;;8.27;;
8044;SDS011;4065;48.754;9.982;2023-02-20T00:30:55;13.77;;;9.00;;
8044;SDS011;4065;48.754;9.982;2023-02-20T00:34:17;10.55;;;8.30;;
8044;SDS011;4065;48.754;9.982;2023-02-20T00:37:39;12.07;;;8.43;;
8044;SDS011;4065;48.754;9.982;2023-02-20T00:41:01;14.57;;;8.75;;
8044;SDS011;4065;48.754;9.982;2023-02-20T00:44:23;16.15;;;8.02;;
8044;SDS011;4065;48.754;9.982;2023-02-20T00:47:46;12.68;;;8.18;;
8044;SDS011;4065;48.754;9.982;2023-02-20T00:51:08;11.85;;;8.35;;
8044;SDS011;4065;48.754;9.982;2023-02-20T00:54:30;11.10;;;7.80;;
8044;SDS011;4065;48.754;9.982;2023-02-20T00:57:52;12.05;;;8.48;;
8044;SDS011;4065;48.754;9.982;2023-02-20T01:01:14;12.07;;;8.77;;
8044;SDS011;4065;48.754;9.982;2023-02-20T01:04:38;10.25;;;7.50;;
8044;SDS011;4065;48.754;9.982;2023-02-20T01:08:00;14.55;;;8.82;;
8044;SDS011;4065;48.754;9.982;2023-02-20T01:11:22;11.75;;;8.15;;
8044;SDS011;4065;48.754;9.982;2023-02-20T01:14:43;12.73;;;7.90;;
8044;SDS011;4065;48.754;9.982;2023-02-20T01:18:06;9.45;;;7.88;;
8044;SDS011;4065;48.754;9.982;2023-02-20T01:21:29;9.93;;;7.72;;
8044;SDS011;4065;48.754;9.982;2023-02-20T01:24:51;11.45;;;8.75;;
8044;SDS011;4065;48.754;9.982;2023-02-20T01:28:13;16.60;;;8.77;;
8044;SDS011;4065;48.754;9.982;2023-02-20T01:31:35;13.48;;;7.82;;
8044;SDS011;4065;48.754;9.982;2023-02-20T01:34:57;11.35;;;8.77;;
8044;SDS011;4065;48.754;9.982;2023-02-20T01:38:20;15.30;;;8.43;;
8044;SDS011;4065;48.754;9.982;2023-02-20T01:41:42;12.40;;;8.63;;
8044;SDS011;4065;48.754;9.982;2023-02-20T01:45:14;13.40;;;8.52;;
8044;SDS011;4065;48.754;9.982;2023-02-20T01:48:46;11.27;;;7.88;;
8044;SDS011;4065;48.754;9.982;2023-02-20T01:52:09;13.00;;;7.95;;
8044;SDS011;4065;48.754;9.982;2023-02-20T01:55:37;13.75;;;9.20;;
8044;SDS011;4065;48.754;9.982;2023-02-20T01:59:00;9.98;;;8.00;;
8044;SDS011;4065;48.754;9.982;2023-02-20T02:02:23;15.13;;;7.75;;
8044;SDS011;4065;48.754;9.982;2023-02-20T02:05:47;15.32;;;8.43;;
8044;SDS011;4065;48.754;9.982;2023-02-20T02:09:12;10.80;;;7.97;;
8044;SDS011;4065;48.754;9.982;2023-02-20T02:12:41;13.68;;;7.43;;
8044;SDS011;4065;48.754;9.982;2023-02-20T02:16:08;13.50;;;7.35;;
8044;SDS011;4065;48.754;9.982;2023-02-20T02:19:54;10.15;;;7.22;;
8044;SDS011;4065;48.754;9.982;2023-02-20T02:23:49;14.45;;;7.25;;
8044;SDS011;4065;48.754;9.982;2023-02-20T02:31:18;12.20;;;7.13;;
8044;SDS011;4065;48.754;9.982;2023-02-20T02:38:50;16.02;;;7.70;;
8044;SDS011;4065;48.754;9.982;2023-02-20T02:42:17;7.35;;;6.38;;
8044;SDS011;4065;48.754;9.982;2023-02-20T02:45:45;12.45;;;6.75;;
8044;SDS011;4065;48.754;9.982;2023-02-20T02:49:13;10.82;;;6.80;;
8044;SDS011;4065;48.754;9.982;2023-02-20T02:52:40;10.48;;;6.57;;
8044;SDS011;4065;48.754;9.982;2023-02-20T02:56:09;9.77;;;6.75;;
8044;SDS011;4065;48.754;9.982;2023-02-20T02:59:43;10.52;;;7.10;;
8044;SDS011;4065;48.754;9.982;2023-02-20T03:03:07;9.70;;;6.43;;
8044;SDS011;4065;48.754;9.982;2023-02-20T03:06:32;10.57;;;6.60;;
8044;SDS011;4065;48.754;9.982;2023-02-20T03:09:56;8.40;;;6.90;;
8044;SDS011;4065;48.754;9.982;2023-02-20T03:13:22;11.05;;;6.65;;
8044;SDS011;4065;48.754;9.982;2023-02-20T03:17:04;10.98;;;6.30;;
8044;SDS011;4065;48.754;9.982;2023-02-20T03:20:29;9.23;;;6.47;;
8044;SDS011;4065;48.754;9.982;2023-02-20T03:23:52;10.57;;;6.75;;
8044;SDS011;4065;48.754;9.982;2023-02-20T03:27:16;9.27;;;6.55;;
8044;SDS011;4065;48.754;9.982;2023-02-20T03:30:40;12.80;;;7.43;;
8044;SDS011;4065;48.754;9.982;2023-02-20T03:34:08;9.48;;;6.30;;
8044;SDS011;4065;48.754;9.982;2023-02-20T03:37:49;8.73;;;6.72;;
8044;SDS011;4065;48.754;9.982;2023-02-20T03:41:29;12.40;;;7.00;;
8044;SDS011;4065;48.754;9.982;2023-02-20T03:45:10;9.63;;;7.25;;
8044;SDS011;4065;48.754;9.982;2023-02-20T03:48:35;10.13;;;6.72;;
8044;SDS011;4065;48.754;9.982;2023-02-20T03:52:00;10.48;;;7.25;;
8044;SDS011;4065;48.754;9.982;2023-02-20T03:55:23;14.20;;;6.50;;
8044;SDS011;4065;48.754;9.982;2023-02-20T03:58:45;10.05;;;6.57;;
8044;SDS011;4065;48.754;9.982;2023-02-20T04:02:12;8.30;;;6.07;;
8044;SDS011;4065;48.754;9.982;2023-02-20T04:05:39;9.68;;;5.85;;
8044;SDS011;4065;48.754;9.982;2023-02-20T04:09:04;8.10;;;5.95;;
8044;SDS011;4065;48.754;9.982;2023-02-20T04:12:27;10.25;;;6.68;;
8044;SDS011;4065;48.754;9.982;2023-02-20T04:15:52;9.88;;;7.07;;
8044;SDS011;4065;48.754;9.982;2023-02-20T04:19:14;11.50;;;6.20;;
8044;SDS011;4065;48.754;9.982;2023-02-20T04:22:38;14.60;;;7.22;;
8044;SDS011;4065;48.754;9.982;2023-02-20T04:26:03;13.18;;;7.57;;
8044;SDS011;4065;48.754;9.982;2023-02-20T04:29:26;11.25;;;7.32;;
8044;SDS011;4065;48.754;9.982;2023-02-20T04:32:48;10.88;;;7.25;;
8044;SDS011;4065;48.754;9.982;2023-02-20T04:36:10;13.55;;;7.30;;
8044;SDS011;4065;48.754;9.982;2023-02-20T04:39:34;10.48;;;6.72;;
8044;SDS011;4065;48.754;9.982;2023-02-20T04:42:56;11.75;;;6.57;;
8044;SDS011;4065;48.754;9.982;2023-02-20T04:46:18;10.55;;;6.95;;
8044;SDS011;4065;48.754;9.982;2023-02-20T04:49:40;8.90;;;6.80;;
8044;SDS011;4065;48.754;9.982;2023-02-20T04:53:02;12.10;;;6.60;;
8044;SDS011;4065;48.754;9.982;2023-02-20T04:56:25;10.57;;;7.28;;
8044;SDS011;4065;48.754;9.982;2023-02-20T04:59:47;11.45;;;7.28;;
8044;SDS011;4065;48.754;9.982;2023-02-20T05:03:09;10.65;;;7.10;;
8044;SDS011;4065;48.754;9.982;2023-02-20T05:06:31;10.60;;;6.85;;
8044;SDS011;4065;48.754;9.982;2023-02-20T05:09:53;12.13;;;7.90;;
8044;SDS011;4065;48.754;9.982;2023-02-20T05:13:17;16.20;;;10.68;;
8044;SDS011;4065;48.754;9.982;2023-02-20T05:16:39;15.77;;;9.85;;
8044;SDS011;4065;48.754;9.982;2023-02-20T05:20:01;10.38;;;8.52;;
8044;SDS011;4065;48.754;9.982;2023-02-20T05:23:23;9.68;;;7.57;;
8044;SDS011;4065;48.754;9.982;2023-02-20T05:26:44;11.23;;;7.47;;
8044;SDS011;4065;48.754;9.982;2023-02-20T05:30:08;12.27;;;7.63;;
8044;SDS011;4065;48.754;9.982;2023-02-20T05:33:31;13.77;;;7.57;;
8044;SDS011;4065;48.754;9.982;2023-02-20T05:36:55;11.95;;;7.68;;
8044;SDS011;4065;48.754;9.982;2023-02-20T05:40:17;12.45;;;7.60;;
8044;SDS011;4065;48.754;9.982;2023-02-20T05:43:39;13.60;;;6.80;;
8044;SDS011;4065;48.754;9.982;2023-02-20T05:47:02;12.13;;;7.85;;
8044;SDS011;4065;48.754;9.982;2023-02-20T05:50:25;8.52;;;7.10;;
8044;SDS011;4065;48.754;9.982;2023-02-20T05:53:47;16.77;;;7.68;;
8044;SDS011;4065;48.754;9.982;2023-02-20T05:57:09;12.68;;;7.00;;
8044;SDS011;4065;48.754;9.982;2023-02-20T06:00:32;11.13;;;7.60;;
8044;SDS011;4065;48.754;9.982;2023-02-20T06:03:55;8.98;;;7.07;;
8044;SDS011;4065;48.754;9.982;2023-02-20T06:07:17;12.07;;;7.10;;
8044;SDS011;4065;48.754;9.982;2023-02-20T06:10:39;10.90;;;7.00;;
8044;SDS011;4065;48.754;9.982;2023-02-20T06:14:01;11.35;;;6.97;;
8044;SDS011;4065;48.754;9.982;2023-02-20T06:17:24;8.45;;;7.40;;
8044;SDS011;4065;48.754;9.982;2023-02-20T06:20:47;13.48;;;8.00;;
8044;SDS011;4065;48.754;9.982;2023-02-20T06:24:09;12.32;;;7.82;;
8044;SDS011;4065;48.754;9.982;2023-02-20T06:27:31;14.00;;;7.35;;
8044;SDS011;4065;48.754;9.982;2023-02-20T06:30:53;12.43;;;7.53;;
8044;SDS011;4065;48.754;9.982;2023-02-20T06:34:16;13.65;;;7.53;;
8044;SDS011;4065;48.754;9.982;2023-02-20T06:37:39;12.38;;;7.43;;
8044;SDS011;4065;48.754;9.982;2023-02-20T06:41:01;11.95;;;7.53;;
8044;SDS011;4065;48.754;9.982;2023-02-20T06:44:23;15.98;;;7.28;;
8044;SDS011;4065;48.754;9.982;2023-02-20T06:47:45;12.90;;;7.32;;
8044;SDS011;4065;48.754;9.982;2023-02-20T06:51:07;9.93;;;6.93;;
8044;SDS011;4065;48.754;9.982;2023-02-20T06:54:30;9.05;;;7.85;;
8044;SDS011;4065;48.754;9.982;2023-02-20T06:57:53;10.20;;;7.60;;
8044;SDS011;4065;48.754;9.982;2023-02-20T07:01:15;13.43;;;6.70;;
8044;SDS011;4065;48.754;9.982;2023-02-20T07:04:38;12.70;;;6.97;;
8044;SDS011;4065;48.754;9.982;2023-02-20T07:08:00;13.23;;;6.78;;
8044;SDS011;4065;48.754;9.982;2023-02-20T07:11:23;11.18;;;6.75;;
8044;SDS011;4065;48.754;9.982;2023-02-20T07:14:45;12.32;;;6.47;;
8044;SDS011;4065;48.754;9.982;2023-02-20T07:18:07;12.60;;;6.70;;
8044;SDS011;4065;48.754;9.982;2023-02-20T07:21:29;11.40;;;6.20;;
8044;SDS011;4065;48.754;9.982;2023-02-20T07:24:51;10.57;;;6.43;;
8044;SDS011;4065;48.754;9.982;2023-02-20T07:28:14;10.50;;;6.75;;
8044;SDS011;4065;48.754;9.982;2023-02-20T07:31:37;9.93;;;5.97;;
8044;SDS011;4065;48.754;9.982;2023-02-20T07:34:59;14.55;;;7.03;;
8044;SDS011;4065;48.754;9.982;2023-02-20T07:38:21;15.05;;;7.65;;
8044;SDS011;4065;48.754;9.982;2023-02-20T07:41:43;9.20;;;6.03;;
8044;SDS011;4065;48.754;9.982;2023-02-20T07:45:06;12.90;;;6.78;;
8044;SDS011;4065;48.754;9.982;2023-02-20T07:48:29;10.90;;;6.00;;
8044;SDS011;4065;48.754;9.982;2023-02-20T07:51:51;9.43;;;6.47;;
8044;SDS011;4065;48.754;9.982;2023-02-20T07:55:13;12.27;;;8.32;;
8044;SDS011;4065;48.754;9.982;2023-02-20T07:58:35;11.07;;;6.28;;
8044;SDS011;4065;48.754;9.982;2023-02-20T08:01:59;10.95;;;6.07;;
8044;SDS011;4065;48.754;9.982;2023-02-20T08:05:20;11.05;;;5.88;;
8044;SDS011;4065;48.754;9.982;2023-02-20T08:08:45;11.20;;;5.72;;
8044;SDS011;4065;48.754;9.982;2023-02-20T08:12:08;9.90;;;5.47;;
8044;SDS011;4065;48.754;9.982;2023-02-20T08:15:30;8.90;;;5.45;;
8044;SDS011;4065;48.754;9.982;2023-02-20T08:18:53;9.13;;;5.28;;
8044;SDS011;4065;48.754;9.982;2023-02-20T08:22:15;12.20;;;5.82;;
8044;SDS011;4065;48.754;9.982;2023-02-20T08:25:37;8.30;;;5.20;;
8044;SDS011;4065;48.754;9.982;2023-02-20T08:28:59;10.40;;;5.32;;
8044;SDS011;4065;48.754;9.982;2023-02-20T08:32:21;6.63;;;4.80;;
8044;SDS011;4065;48.754;9.982;2023-02-20T08:35:44;12.77;;;4.95;;
8044;SDS011;4065;48.754;9.982;2023-02-20T08:39:07;7.00;;;4.70;;
8044;SDS011;4065;48.754;9.982;2023-02-20T08:42:29;10.10;;;4.70;;
8044;SDS011;4065;48.754;9.982;2023-02-20T08:45:51;8.55;;;4.78;;
8044;SDS011;4065;48.754;9.982;2023-02-20T08:49:13;7.40;;;4.60;;
8044;SDS011;4065;48.754;9.982;2023-02-20T08:52:38;7.60;;;4.10;;
8044;SDS011;4065;48.754;9.982;2023-02-20T08:56:00;5.90;;;4.47;;
8044;SDS011;4065;48.754;9.982;2023-02-20T08:59:24;6.95;;;4.63;;
8044;SDS011;4065;48.754;9.982;2023-02-20T09:02:46;7.22;;;4.22;;
8044;SDS011;4065;48.754;9.982;2023-02-20T09:06:08;8.75;;;5.03;;
8044;SDS011;4065;48.754;9.982;2023-02-20T09:09:31;11.45;;;7.07;;
8044;SDS011;4065;48.754;9.982;2023-02-20T09:12:53;6.10;;;4.82;;
8044;SDS011;4065;48.754;9.982;2023-02-20T09:16:17;6.85;;;4.40;;
8044;SDS011;4065;48.754;9.982;2023-02-20T09:19:40;10.23;;;4.70;;
8044;SDS011;4065;48.754;9.982;2023-02-20T09:23:01;12.43;;;4.95;;
8044;SDS011;4065;48.754;9.982;2023-02-20T09:26:28;6.55;;;4.85;;
8044;SDS011;4065;48.754;9.982;2023-02-20T09:29:50;9.30;;;4.72;;
8044;SDS011;4065;48.754;9.982;2023-02-20T09:33:12;8.27;;;4.97;;
8044;SDS011;4065;48.754;9.982;2023-02-20T09:36:34;8.63;;;5.13;;
8044;SDS011;4065;48.754;9.982;2023-02-20T09:39:56;7.95;;;4.72;;
8044;SDS011;4065;48.754;9.982;2023-02-20T09:43:22;6.72;;;5.00;;
8044;SDS011;4065;48.754;9.982;2023-02-20T09:46:47;7.30;;;5.50;;
8044;SDS011;4065;48.754;9.982;2023-02-20T09:50:11;7.32;;;4.50;;
8044;SDS011;4065;48.754;9.982;2023-02-20T09:53:36;11.35;;;6.80;;
8044;SDS011;4065;48.754;9.982;2023-02-20T09:57:00;8.40;;;5.20;;
8044;SDS011;4065;48.754;9.982;2023-02-20T10:00:27;8.43;;;5.70;;
8044;SDS011;4065;48.754;9.982;2023-02-20T10:03:53;5.07;;;4.43;;
8044;SDS011;4065;48.754;9.982;2023-02-20T10:07:19;11.30;;;6.15;;
8044;SDS011;4065;48.754;9.982;2023-02-20T10:10:43;9.13;;;4.90;;
8044;SDS011;4065;48.754;9.982;2023-02-20T10:14:12;7.80;;;4.80;;
8044;SDS011;4065;48.754;9.982;2023-02-20T10:17:48;5.90;;;4.65;;
8044;SDS011;4065;48.754;9.982;2023-02-20T10:21:30;8.02;;;4.07;;
8044;SDS011;4065;48.754;9.982;2023-02-20T10:25:06;8.20;;;4.47;;
8044;SDS011;4065;48.754;9.982;2023-02-20T10:28:30;11.27;;;4.40;;
8044;SDS011;4065;48.754;9.982;2023-02-20T10:31:54;6.90;;;4.93;;
8044;SDS011;4065;48.754;9.982;2023-02-20T10:35:23;6.30;;;4.18;;
8044;SDS011;4065;48.754;9.982;2023-02-20T10:38:46;7.18;;;4.15;;
8044;SDS011;4065;48.754;9.982;2023-02-20T10:42:11;5.53;;;4.15;;
8044;SDS011;4065;48.754;9.982;2023-02-20T10:45:37;6.25;;;4.28;;
8044;SDS011;4065;48.754;9.982;2023-02-20T10:49:06;8.27;;;3.80;;
8044;SDS011;4065;48.754;9.982;2023-02-20T10:52:34;6.22;;;4.03;;
8044;SDS011;4065;48.754;9.982;2023-02-20T10:56:02;6.22;;;4.18;;
8044;SDS011;4065;48.754;9.982;2023-02-20T10:59:29;6.38;;;3.70;;
8044;SDS011;4065;48.754;9.982;2023-02-20T11:02:55;5.63;;;3.53;;
8044;SDS011;4065;48.754;9.982;2023-02-20T11:06:25;7.57;;;3.70;;
8044;SDS011;4065;48.754;9.982;2023-02-20T11:09:52;7.63;;;3.50;;
8044;SDS011;4065;48.754;9.982;2023-02-20T11:13:16;5.65;;;3.70;;
8044;SDS011;4065;48.754;9.982;2023-02-20T11:16:41;6.70;;;4.63;;
8044;SDS011;4065;48.754;9.982;2023-02-20T11:24:15;7.07;;;3.47;;
8044;SDS011;4065;48.754;9.982;2023-02-20T11:27:40;5.45;;;3.65;;
8044;SDS011;4065;48.754;9.982;2023-02-20T11:31:05;5.40;;;3.60;;
8044;SDS011;4065;48.754;9.982;2023-02-20T11:34:28;11.13;;;4.25;;
8044;SDS011;4065;48.754;9.982;2023-02-20T11:42:04;5.18;;;3.53;;
8044;SDS011;4065;48.754;9.982;2023-02-20T11:45:29;8.70;;;3.88;;
8044;SDS011;4065;48.754;9.982;2023-02-20T11:52:31;4.85;;;4.00;;
8044;SDS011;4065;48.754;9.982;2023-02-20T11:56:06;7.25;;;3.95;;
8044;SDS011;4065;48.754;9.982;2023-02-20T11:59:32;9.02;;;4.07;;
8044;SDS011;4065;48.754;9.982;2023-02-20T12:03:02;6.43;;;3.75;;
8044;SDS011;4065;48.754;9.982;2023-02-20T12:06:37;3.60;;;3.30;;
8044;SDS011;4065;48.754;9.982;2023-02-20T12:10:02;7.10;;;3.70;;
8044;SDS011;4065;48.754;9.982;2023-02-20T12:13:29;5.00;;;3.45;;
8044;SDS011;4065;48.754;9.982;2023-02-20T12:17:01;3.75;;;3.00;;
8044;SDS011;4065;48.754;9.982;2023-02-20T12:20:30;4.80;;;3.58;;
8044;SDS011;4065;48.754;9.982;2023-02-20T12:23:55;5.88;;;3.45;;
8044;SDS011;4065;48.754;9.982;2023-02-20T12:27:31;5.18;;;3.67;;
8044;SDS011;4065;48.754;9.982;2023-02-20T12:31:01;3.20;;;2.90;;
8044;SDS011;4065;48.754;9.982;2023-02-20T12:34:32;4.10;;;2.67;;
8044;SDS011;4065;48.754;9.982;2023-02-20T12:38:15;4.80;;;2.72;;
8044;SDS011;4065;48.754;9.982;2023-02-20T12:41:47;4.57;;;2.72;;
8044;SDS011;4065;48.754;9.982;2023-02-20T12:45:17;37.20;;;19.25;;
8044;SDS011;4065;48.754;9.982;2023-02-20T12:48:46;21.92;;;14.25;;
8044;SDS011;4065;48.754;9.982;2023-02-20T12:52:24;11.57;;;7.05;;
8044;SDS011;4065;48.754;9.982;2023-02-20T12:56:04;9.25;;;4.47;;
8044;SDS011;4065;48.754;9.982;2023-02-20T12:59:34;5.00;;;3.60;;
8044;SDS011;4065;48.754;9.982;2023-02-20T13:03:00;5.95;;;3.65;;
8044;SDS011;4065;48.754;9.982;2023-02-20T13:06:37;4.55;;;3.10;;
8044;SDS011;4065;48.754;9.982;2023-02-20T13:10:05;3.80;;;3.03;;
8044;SDS011;4065;48.754;9.982;2023-02-20T13:13:34;4.47;;;2.83;;
8044;SDS011;4065;48.754;9.982;2023-02-20T13:17:02;5.13;;;3.08;;
8044;SDS011;4065;48.754;9.982;2023-02-20T13:20:31;5.28;;;2.75;;
8044;SDS011;4065;48.754;9.982;2023-02-20T13:27:57;5.88;;;4.03;;
8044;SDS011;4065;48.754;9.982;2023-02-20T13:31:22;5.45;;;3.13;;
8044;SDS011;4065;48.754;9.982;2023-02-20T13:34:45;3.50;;;2.70;;
8044;SDS011;4065;48.754;9.982;2023-02-20T13:38:10;10.05;;;7.60;;
8044;SDS011;4065;48.754;9.982;2023-02-20T13:41:55;4.72;;;3.55;;
8044;SDS011;4065;48.754;9.982;2023-02-20T13:45:37;5.55;;;3.33;;
8044;SDS011;4065;48.754;9.982;2023-02-20T13:49:02;5.75;;;4.80;;
8044;SDS011;4065;48.754;9.982;2023-02-20T13:52:33;5.88;;;4.07;;
8044;SDS011;4065;48.754;9.982;2023-02-20T13:55:57;3.75;;;3.00;;
8044;SDS011;4065;48.754;9.982;2023-02-20T13:59:19;6.82;;;4.30;;
8044;SDS011;4065;48.754;9.982;2023-02-20T14:02:41;3.13;;;2.65;;
8044;SDS011;4065;48.754;9.982;2023-02-20T14:06:07;3.55;;;2.78;;
8044;SDS011;4065;48.754;9.982;2023-02-20T14:09:30;7.93;;;4.32;;
8044;SDS011;4065;48.754;9.982;2023-02-20T14:12:54;4.85;;;4.20;;
8044;SDS011;4065;48.754;9.982;2023-02-20T14:16:22;6.75;;;4.90;;
8044;SDS011;4065;48.754;9.982;2023-02-20T14:19:47;3.70;;;3.22;;
8044;SDS011;4065;48.754;9.982;2023-02-20T14:23:17;7.13;;;3.20;;
8044;SDS011;4065;48.754;9.982;2023-02-20T14:26:42;3.55;;;2.67;;
8044;SDS011;4065;48.754;9.982;2023-02-20T14:30:05;3.63;;;2.45;;
8044;SDS011;4065;48.754;9.982;2023-02-20T14:33:32;5.50;;;2.50;;
8044;SDS011;4065;48.754;9.982;2023-02-20T14:36:57;5.22;;;2.67;;
8044;SDS011;4065;48.754;9.982;2023-02-20T14:40:30;5.45;;;2.38;;
8044;SDS011;4065;48.754;9.982;2023-02-20T14:43:55;4.32;;;2.10;;
8044;SDS011;4065;48.754;9.982;2023-02-20T14:47:18;4.07;;;1.98;;
8044;SDS011;4065;48.754;9.982;2023-02-20T14:50:40;5.35;;;2.40;;
8044;SDS011;4065;48.754;9.982;2023-02-20T14:54:14;3.42;;;1.90;;
8044;SDS011;4065;48.754;9.982;2023-02-20T14:57:40;5.57;;;2.45;;
8044;SDS011;4065;48.754;9.982;2023-02-20T15:01:02;2.88;;;2.15;;
8044;SDS011;4065;48.754;9.982;2023-02-20T15:04:35;3.15;;;2.22;;
8044;SDS011;4065;48.754;9.982;2023-02-20T15:08:00;4.70;;;2.20;;
8044;SDS011;4065;48.754;9.982;2023-02-20T15:11:24;3.20;;;2.22;;
8044;SDS011;4065;48.754;9.982;2023-02-20T15:14:53;5.13;;;4.38;;
8044;SDS011;4065;48.754;9.982;2023-02-20T15:18:30;7.10;;;5.53;;
8044;SDS011;4065;48.754;9.982;2023-02-20T15:21:57;6.32;;;4.60;;
8044;SDS011;4065;48.754;9.982;2023-02-20T15:25:26;3.83;;;3.20;;
8044;SDS011;4065;48.754;9.982;2023-02-20T15:28:49;4.75;;;2.92;;
8044;SDS011;4065;48.754;9.982;2023-02-20T15:32:32;4.28;;;2.50;;
8044;SDS011;4065;48.754;9.982;2023-02-20T15:35:54;4.00;;;2.20;;
8044;SDS011;4065;48.754;9.982;2023-02-20T15:39:16;4.13;;;2.50;;
8044;SDS011;4065;48.754;9.982;2023-02-20T15:42:39;2.67;;;2.05;;
8044;SDS011;4065;48.754;9.982;2023-02-20T15:46:01;3.88;;;2.20;;
8044;SDS011;4065;48.754;9.982;2023-02-20T15:49:24;4.53;;;2.25;;
8044;SDS011;4065;48.754;9.982;2023-02-20T15:52:47;3.33;;;2.03;;
8044;SDS011;4065;48.754;9.982;2023-02-20T15:56:09;3.03;;;2.25;;
8044;SDS011;4065;48.754;9.982;2023-02-20T15:59:31;5.35;;;2.25;;
8044;SDS011;4065;48.754;9.982;2023-02-20T16:02:53;2.80;;;2.00;;
8044;SDS011;4065;48.754;9.982;2023-02-20T16:06:17;7.55;;;3.30;;
8044;SDS011;4065;48.754;9.982;2023-02-20T16:09:40;3.38;;;2.42;;
8044;SDS011;4065;48.754;9.982;2023-02-20T16:13:02;6.32;;;3.85;;
8044;SDS011;4065;48.754;9.982;2023-02-20T16:16:27;4.38;;;2.33;;
8044;SDS011;4065;48.754;9.982;2023-02-20T16:19:53;3.25;;;2.40;;
8044;SDS011;4065;48.754;9.982;2023-02-20T16:23:16;2.35;;;2.13;;
8044;SDS011;4065;48.754;9.982;2023-02-20T16:26:38;4.32;;;2.47;;
8044;SDS011;4065;48.754;9.982;2023-02-20T16:30:02;4.68;;;2.65;;
8044;SDS011;4065;48.754;9.982;2023-02-20T16:33:24;7.00;;;2.90;;
8044;SDS011;4065;48.754;9.982;2023-02-20T16:36:47;4.07;;;2.67;;
8044;SDS011;4065;48.754;9.982;2023-02-20T16:40:17;4.03;;;2.50;;
8044;SDS011;4065;48.754;9.982;2023-02-20T16:43:39;5.55;;;3.20;;
8044;SDS011;4065;48.754;9.982;2023-02-20T16:47:01;6.32;;;3.13;;
8044;SDS011;4065;48.754;9.982;2023-02-20T16:50:24;6.90;;;3.38;;
8044;SDS011;4065;48.754;9.982;2023-02-20T16:53:49;5.47;;;2.92;;
8044;SDS011;4065;48.754;9.982;2023-02-20T16:57:12;8.55;;;3.65;;
8044;SDS011;4065;48.754;9.982;2023-02-20T17:00:35;10.50;;;6.95;;
8044;SDS011;4065;48.754;9.982;2023-02-20T17:03:59;15.68;;;10.63;;
8044;SDS011;4065;48.754;9.982;2023-02-20T17:07:21;36.10;;;32.92;;
8044;SDS011;4065;48.754;9.982;2023-02-20T17:10:44;65.30;;;59.08;;
8044;SDS011;4065;48.754;9.982;2023-02-20T17:14:07;13.63;;;12.32;;
8044;SDS011;4065;48.754;9.982;2023-02-20T17:17:30;12.75;;;11.23;;
8044;SDS011;4065;48.754;9.982;2023-02-20T17:20:53;13.80;;;11.80;;
8044;SDS011;4065;48.754;9.982;2023-02-20T17:24:15;15.05;;;12.48;;
8044;SDS011;4065;48.754;9.982;2023-02-20T17:27:38;16.20;;;14.27;;
8044;SDS011;4065;48.754;9.982;2023-02-20T17:31:01;12.52;;;10.70;;
8044;SDS011;4065;48.754;9.982;2023-02-20T17:34:23;19.02;;;17.00;;
8044;SDS011;4065;48.754;9.982;2023-02-20T17:37:45;10.05;;;9.05;;
8044;SDS011;4065;48.754;9.982;2023-02-20T17:41:07;10.18;;;9.18;;
8044;SDS011;4065;48.754;9.982;2023-02-20T17:44:29;9.57;;;8.02;;
8044;SDS011;4065;48.754;9.982;2023-02-20T17:47:52;8.32;;;7.40;;
8044;SDS011;4065;48.754;9.982;2023-02-20T17:51:15;8.50;;;7.60;;
8044;SDS011;4065;48.754;9.982;2023-02-20T17:54:38;7.80;;;6.15;;
8044;SDS011;4065;48.754;9.982;2023-02-20T17:58:05;6.85;;;6.25;;
8044;SDS011;4065;48.754;9.982;2023-02-20T18:01:27;10.43;;;6.30;;
8044;SDS011;4065;48.754;9.982;2023-02-20T18:04:50;6.95;;;4.85;;
8044;SDS011;4065;48.754;9.982;2023-02-20T18:08:12;8.73;;;6.60;;
8044;SDS011;4065;48.754;9.982;2023-02-20T18:11:34;8.02;;;5.88;;
8044;SDS011;4065;48.754;9.982;2023-02-20T18:14:56;7.07;;;4.90;;
8044;SDS011;4065;48.754;9.982;2023-02-20T18:18:18;7.32;;;5.20;;
8044;SDS011;4065;48.754;9.982;2023-02-20T18:21:43;6.38;;;5.25;;
8044;SDS011;4065;48.754;9.982;2023-02-20T18:25:08;7.15;;;5.40;;
8044;SDS011;4065;48.754;9.982;2023-02-20T18:28:30;6.88;;;5.97;;
8044;SDS011;4065;48.754;9.982;2023-02-20T18:31:53;7.07;;;5.03;;
8044;SDS011;4065;48.754;9.982;2023-02-20T18:35:16;7.50;;;5.00;;
8044;SDS011;4065;48.754;9.982;2023-02-20T18:38:40;10.23;;;6.40;;
8044;SDS011;4065;48.754;9.982;2023-02-20T18:42:02;7.40;;;4.50;;
8044;SDS011;4065;48.754;9.982;2023-02-20T18:45:24;17.52;;;10.02;;
8044;SDS011;4065;48.754;9.982;2023-02-20T18:48:46;21.42;;;12.70;;
8044;SDS011;4065;48.754;9.982;2023-02-20T18:52:08;23.05;;;14.32;;
8044;SDS011;4065;48.754;9.982;2023-02-20T18:55:31;12.18;;;6.88;;
8044;SDS011;4065;48.754;9.982;2023-02-20T18:58:53;7.25;;;4.60;;
8044;SDS011;4065;48.754;9.982;2023-02-20T19:02:15;9.70;;;4.60;;
8044;SDS011;4065;48.754;9.982;2023-02-20T19:05:37;8.40;;;5.10;;
8044;SDS011;4065;48.754;9.982;2023-02-20T19:08:59;5.50;;;4.15;;
8044;SDS011;4065;48.754;9.982;2023-02-20T19:12:23;6.82;;;3.90;;
8044;SDS011;4065;48.754;9.982;2023-02-20T19:15:44;6.43;;;3.50;;
8044;SDS011;4065;48.754;9.982;2023-02-20T19:19:06;4.72;;;3.20;;
8044;SDS011;4065;48.754;9.982;2023-02-20T19:22:30;5.32;;;3.50;;
8044;SDS011;4065;48.754;9.982;2023-02-20T19:25:54;7.13;;;4.13;;
8044;SDS011;4065;48.754;9.982;2023-02-20T19:29:19;4.38;;;3.70;;
8044;SDS011;4065;48.754;9.982;2023-02-20T19:32:42;3.25;;;2.95;;
8044;SDS011;4065;48.754;9.982;2023-02-20T19:36:04;4.53;;;3.58;;
8044;SDS011;4065;48.754;9.982;2023-02-20T19:39:26;8.38;;;4.15;;
8044;SDS011;4065;48.754;9.982;2023-02-20T19:42:48;3.75;;;3.25;;
8044;SDS011;4065;48.754;9.982;2023-02-20T19:46:17;10.32;;;5.20;;
8044;SDS011;4065;48.754;9.982;2023-02-20T19:49:42;4.30;;;3.42;;
8044;SDS011;4065;48.754;9.982;2023-02-20T19:53:05;3.80;;;3.15;;
8044;SDS011;4065;48.754;9.982;2023-02-20T19:56:27;4.68;;;3.03;;
8044;SDS011;4065;48.754;9.982;2023-02-20T19:59:49;4.03;;;3.28;;
8044;SDS011;4065;48.754;9.982;2023-02-20T20:03:13;4.80;;;2.90;;
8044;SDS011;4065;48.754;9.982;2023-02-20T20:06:35;3.50;;;3.17;;
8044;SDS011;4065;48.754;9.982;2023-02-20T20:09:57;4.82;;;3.20;;
8044;SDS011;4065;48.754;9.982;2023-02-20T20:13:19;3.80;;;3.13;;
8044;SDS011;4065;48.754;9.982;2023-02-20T20:16:41;12.63;;;4.07;;
8044;SDS011;4065;48.754;9.982;2023-02-20T20:20:05;3.67;;;3.20;;
8044;SDS011;4065;48.754;9.982;2023-02-20T20:23:29;4.35;;;3.20;;
8044;SDS011;4065;48.754;9.982;2023-02-20T20:26:51;5.80;;;3.72;;
8044;SDS011;4065;48.754;9.982;2023-02-20T20:30:15;6.32;;;4.57;;
8044;SDS011;4065;48.754;9.982;2023-02-20T20:33:38;9.35;;;8.43;;
8044;SDS011;4065;48.754;9.982;2023-02-20T20:37:02;7.88;;;6.28;;
8044;SDS011;4065;48.754;9.982;2023-02-20T20:40:24;5.75;;;5.13;;
8044;SDS011;4065;48.754;9.982;2023-02-20T20:43:46;6.28;;;5.75;;
8044;SDS011;4065;48.754;9.982;2023-02-20T20:47:10;8.00;;;7.20;;
8044;SDS011;4065;48.754;9.982;2023-02-20T20:50:31;7.03;;;6.32;;
8044;SDS011;4065;48.754;9.982;2023-02-20T20:53:55;6.03;;;5.43;;
8044;SDS011;4065;48.754;9.982;2023-02-20T20:57:17;11.52;;;10.43;;
8044;SDS011;4065;48.754;9.982;2023-02-20T21:00:39;17.55;;;9.68;;
8044;SDS011;4065;48.754;9.982;2023-02-20T21:04:01;18.58;;;11.57;;
8044;SDS011;4065;48.754;9.982;2023-02-20T21:07:23;18.65;;;11.10;;
8044;SDS011;4065;48.754;9.982;2023-02-20T21:10:46;15.07;;;10.07;;
8044;SDS011;4065;48.754;9.982;2023-02-20T21:14:08;10.27;;;6.65;;
8044;SDS011;4065;48.754;9.982;2023-02-20T21:17:30;17.08;;;9.45;;
8044;SDS011;4065;48.754;9.982;2023-02-20T21:20:52;11.60;;;8.18;;
8044;SDS011;4065;48.754;9.982;2023-02-20T21:24:14;14.45;;;8.93;;